Аэропорт: Аулие-Ата. Тараз

ICAO: UADD

METAR:
2018/09/23 11:00
UADD 231100Z 36002MPS 9999 SCT050CB OVC100 22/05 Q1017 R13/0///65 NOSIG RMK QFE706/0941
METAR:
2017/07/22 21:03
TAF UADD 222000Z 2221/2309 02005G10MPS 9999 NSC